Time;durP1;ratioP1;P1;durP2;ratioP2;P2;SDS_P1;SDS_P2;PMS_P1;PMS_P2;Temp;Humidity;BMP_temperature;BMP_pressure;BME280_temperature;BME280_humidity;BME280_pressure;Samples;Min_cycle;Max_cycle;Signal;HPM_P1;HPM_P2
2022/05/05 00:01:38;;;;;;;0.30;0.30;;;;;;;;;;5022642;28;20126;-88
2022/05/05 00:04:04;;;;;;;0.30;0.30;;;;;;;;;;5022208;28;20044;-89
2022/05/05 00:06:30;;;;;;;0.20;0.20;;;;;;;;;;5022045;28;20452;-89
2022/05/05 00:08:56;;;;;;;0.20;0.20;;;;;;;;;;5022309;28;20047;-89
2022/05/05 00:17:03;;;;;;;0.25;0.25;;;;;;;;;;5038153;28;20044;-90
2022/05/05 00:19:30;;;;;;;1.30;1.20;;;;;;;;;;5021803;28;20044;-88
2022/05/05 00:21:56;;;;;;;0.45;0.40;;;;;;;;;;5005307;28;20041;-87
2022/05/05 00:24:23;;;;;;;0.30;0.30;;;;;;;;;;5021701;28;20415;-88
2022/05/05 00:26:49;;;;;;;0.20;0.20;;;;;;;;;;5021562;28;20032;-87
2022/05/05 00:29:18;;;;;;;0.40;0.40;;;;;;;;;;5021256;28;20083;-88
2022/05/05 00:31:45;;;;;;;0.30;0.30;;;;;;;;;;5021042;28;20080;-89
2022/05/05 00:34:11;;;;;;;0.20;0.20;;;;;;;;;;5037337;28;20143;-89
2022/05/05 00:36:37;;;;;;;0.20;0.20;;;;;;;;;;5021356;28;20445;-89
2022/05/05 00:39:04;;;;;;;0.32;0.32;;;;;;;;;;5021239;28;20095;-88
2022/05/05 00:41:37;;;;;;;0.43;0.43;;;;;;;;;;5021157;28;20044;-88
2022/05/05 00:44:04;;;;;;;0.20;0.20;;;;;;;;;;5037586;28;20216;-87
2022/05/05 00:46:31;;;;;;;0.20;0.20;;;;;;;;;;5021233;28;20045;-87
2022/05/05 00:48:57;;;;;;;0.30;0.30;;;;;;;;;;5020664;28;20379;-87
2022/05/05 00:51:23;;;;;;;0.55;0.55;;;;;;;;;;5021046;28;20468;-88
2022/05/05 00:53:49;;;;;;;2.47;1.13;;;;;;;;;;5020698;28;20076;-87
2022/05/05 00:56:16;;;;;;;0.38;0.38;;;;;;;;;;5020889;28;20063;-88
2022/05/05 00:58:44;;;;;;;0.43;0.43;;;;;;;;;;5021204;28;20128;-88
2022/05/05 01:01:10;;;;;;;0.20;0.20;;;;;;;;;;5020782;28;20033;-86
2022/05/05 01:03:37;;;;;;;0.20;0.20;;;;;;;;;;5037257;28;20047;-89
2022/05/05 01:06:04;;;;;;;0.30;0.30;;;;;;;;;;5020361;28;20465;-88
2022/05/05 01:08:30;;;;;;;0.40;0.40;;;;;;;;;;5020512;28;20041;-88
2022/05/05 01:10:56;;;;;;;0.20;0.20;;;;;;;;;;5020244;28;20040;-87
2022/05/05 01:13:23;;;;;;;0.52;0.52;;;;;;;;;;5020072;28;20087;-88
2022/05/05 01:15:49;;;;;;;0.47;0.47;;;;;;;;;;5019067;28;20455;-88
2022/05/05 01:18:15;;;;;;;0.25;0.25;;;;;;;;;;5020369;28;20041;-87
2022/05/05 01:20:45;;;;;;;0.20;0.20;;;;;;;;;;5020610;28;20041;-87
2022/05/05 01:23:12;;;;;;;0.20;0.20;;;;;;;;;;5036523;28;20048;-85
2022/05/05 01:28:23;;;;;;;0.30;0.30;;;;;;;;;;5036664;28;20048;-87
2022/05/05 01:30:49;;;;;;;0.20;0.20;;;;;;;;;;5020537;28;20502;-88
2022/05/05 01:33:19;;;;;;;0.28;0.28;;;;;;;;;;5020250;28;20063;-88
2022/05/05 01:35:46;;;;;;;0.45;0.45;;;;;;;;;;5003492;28;20045;-87
2022/05/05 01:38:13;;;;;;;0.20;0.20;;;;;;;;;;5020014;28;20080;-88
2022/05/05 01:40:40;;;;;;;0.30;0.30;;;;;;;;;;5020001;28;20060;-88
2022/05/05 01:43:06;;;;;;;0.35;0.35;;;;;;;;;;5020790;28;20169;-87
2022/05/05 01:45:32;;;;;;;0.30;0.30;;;;;;;;;;5020130;28;20036;-88
2022/05/05 01:47:58;;;;;;;0.20;0.20;;;;;;;;;;5019468;28;20037;-87
2022/05/05 01:50:25;;;;;;;0.40;0.40;;;;;;;;;;5019471;28;20040;-86
2022/05/05 01:52:52;;;;;;;0.80;0.80;;;;;;;;;;5003655;28;20045;-87
2022/05/05 01:55:18;;;;;;;0.30;0.30;;;;;;;;;;5019789;28;20041;-88
2022/05/05 01:57:44;;;;;;;0.30;0.30;;;;;;;;;;5019275;28;20098;-87
2022/05/05 02:00:10;;;;;;;0.20;0.20;;;;;;;;;;5019418;28;20040;-87
2022/05/05 02:02:37;;;;;;;0.30;0.30;;;;;;;;;;5019787;28;20478;-87
2022/05/05 02:05:06;;;;;;;0.30;0.30;;;;;;;;;;5019113;28;20041;-88
2022/05/05 02:07:32;;;;;;;0.20;0.20;;;;;;;;;;5019888;28;20037;-88
2022/05/05 02:10:01;;;;;;;0.20;0.20;;;;;;;;;;5019685;28;20481;-88
2022/05/05 02:12:29;;;;;;;0.60;0.60;;;;;;;;;;5003386;28;20037;-87
2022/05/05 02:14:55;;;;;;;0.20;0.20;;;;;;;;;;5018878;28;20041;-88
2022/05/05 02:17:22;;;;;;;4.88;4.47;;;;;;;;;;5002661;28;20047;-88
2022/05/05 02:19:48;;;;;;;0.30;0.30;;;;;;;;;;5035873;28;20055;-88
2022/05/05 02:22:14;;;;;;;0.30;0.30;;;;;;;;;;5019590;28;20512;-86
2022/05/05 02:24:40;;;;;;;0.20;0.20;;;;;;;;;;5019330;28;20410;-88
2022/05/05 02:27:08;;;;;;;0.70;0.70;;;;;;;;;;5006521;28;20375;-87
2022/05/05 02:29:34;;;;;;;0.30;0.30;;;;;;;;;;5007030;28;20045;-88
2022/05/05 02:32:00;;;;;;;0.50;0.50;;;;;;;;;;5023599;28;20041;-87
2022/05/05 02:34:26;;;;;;;0.35;0.35;;;;;;;;;;5023625;28;20040;-88
2022/05/05 02:39:36;;;;;;;0.20;0.20;;;;;;;;;;5039409;28;20037;-87
2022/05/05 02:42:02;;;;;;;0.20;0.20;;;;;;;;;;5039575;28;20041;-88
2022/05/05 02:44:28;;;;;;;0.38;0.38;;;;;;;;;;5039997;28;20486;-88
2022/05/05 02:46:55;;;;;;;1.08;0.77;;;;;;;;;;5022937;28;20044;-88
2022/05/05 02:49:21;;;;;;;0.30;0.30;;;;;;;;;;5023466;28;20045;-88
2022/05/05 02:51:47;;;;;;;0.40;0.40;;;;;;;;;;5023034;28;20043;-88
2022/05/05 02:56:58;;;;;;;0.30;0.30;;;;;;;;;;5038944;28;20041;-88
2022/05/05 02:59:24;;;;;;;0.85;0.85;;;;;;;;;;5022627;28;20044;-88
2022/05/05 03:01:50;;;;;;;0.30;0.30;;;;;;;;;;5006395;28;20453;-87
2022/05/05 03:04:16;;;;;;;0.30;0.30;;;;;;;;;;5022485;28;20045;-87
2022/05/05 03:06:42;;;;;;;0.60;0.60;;;;;;;;;;5022347;28;20132;-88
2022/05/05 03:09:10;;;;;;;0.28;0.28;;;;;;;;;;5022381;28;20045;-86
2022/05/05 03:11:39;;;;;;;0.50;0.50;;;;;;;;;;5039750;28;20075;-87
2022/05/05 03:14:04;;;;;;;0.40;0.40;;;;;;;;;;5022473;28;20497;-86
2022/05/05 03:16:31;;;;;;;0.30;0.30;;;;;;;;;;5022460;28;20424;-87
2022/05/05 03:18:57;;;;;;;0.40;0.40;;;;;;;;;;5022340;28;20123;-87
2022/05/05 03:21:23;;;;;;;0.30;0.30;;;;;;;;;;5022841;28;20045;-87
2022/05/05 03:23:49;;;;;;;0.35;0.35;;;;;;;;;;5022858;28;20045;-88
2022/05/05 03:26:15;;;;;;;0.30;0.30;;;;;;;;;;5022916;28;20037;-87
2022/05/05 03:28:41;;;;;;;0.73;0.52;;;;;;;;;;5022492;28;20041;-87
2022/05/05 03:31:07;;;;;;;0.40;0.40;;;;;;;;;;5022495;28;20068;-88
2022/05/05 03:33:34;;;;;;;0.70;0.70;;;;;;;;;;5022438;28;20037;-87
2022/05/05 03:36:00;;;;;;;0.50;0.50;;;;;;;;;;5022366;28;20098;-88
2022/05/05 03:38:27;;;;;;;0.30;0.30;;;;;;;;;;5038124;28;20041;-87
2022/05/05 03:40:54;;;;;;;0.30;0.30;;;;;;;;;;5022528;28;20478;-88
2022/05/05 03:43:21;;;;;;;0.30;0.30;;;;;;;;;;5022233;28;20056;-88
2022/05/05 03:45:47;;;;;;;0.30;0.30;;;;;;;;;;5021820;28;20045;-86
2022/05/05 03:48:14;;;;;;;0.40;0.40;;;;;;;;;;5022453;28;20473;-87
2022/05/05 03:50:44;;;;;;;31.17;3.60;;;;;;;;;;5022712;28;20085;-86
2022/05/05 03:53:10;;;;;;;0.30;0.30;;;;;;;;;;5022211;28;20041;-88
2022/05/05 03:55:38;;;;;;;0.30;0.30;;;;;;;;;;5038297;28;20041;-85
2022/05/05 03:58:04;;;;;;;5.18;2.80;;;;;;;;;;5022116;28;20379;-86
2022/05/05 04:00:30;;;;;;;0.20;0.20;;;;;;;;;;5022090;28;20127;-87
2022/05/05 04:05:43;;;;;;;0.20;0.20;;;;;;;;;;5057784;28;20440;-87
2022/05/05 04:08:10;;;;;;;1.40;0.70;;;;;;;;;;5058091;28;20045;-87
2022/05/05 04:10:36;;;;;;;0.40;0.40;;;;;;;;;;5040822;28;20133;-87
2022/05/05 04:13:04;;;;;;;0.63;0.63;;;;;;;;;;5041448;28;20190;-88
2022/05/05 04:15:30;;;;;;;0.30;0.30;;;;;;;;;;5025137;28;20162;-87
2022/05/05 04:17:57;;;;;;;0.50;0.50;;;;;;;;;;5057640;28;20068;-88
2022/05/05 04:20:23;;;;;;;0.30;0.30;;;;;;;;;;5040924;28;20033;-86
2022/05/05 04:22:49;;;;;;;0.30;0.30;;;;;;;;;;5041019;28;20039;-87
2022/05/05 04:25:18;;;;;;;0.40;0.40;;;;;;;;;;5041855;28;20119;-88
2022/05/05 04:27:45;;;;;;;0.25;0.25;;;;;;;;;;5041594;28;20051;-88
2022/05/05 04:30:13;;;;;;;0.40;0.40;;;;;;;;;;5041241;28;20123;-86
2022/05/05 04:32:39;;;;;;;0.30;0.30;;;;;;;;;;5041128;28;20040;-87
2022/05/05 04:35:05;;;;;;;0.50;0.50;;;;;;;;;;5041071;28;20115;-88
2022/05/05 04:37:31;;;;;;;0.85;0.85;;;;;;;;;;5040880;28;20036;-85
2022/05/05 04:39:57;;;;;;;0.25;0.25;;;;;;;;;;5041177;28;20040;-88
2022/05/05 04:42:25;;;;;;;0.28;0.28;;;;;;;;;;5040892;28;20040;-86
2022/05/05 04:44:51;;;;;;;0.40;0.40;;;;;;;;;;5057455;28;20185;-88
2022/05/05 04:47:18;;;;;;;0.63;0.50;;;;;;;;;;5058067;28;20405;-87
2022/05/05 04:49:44;;;;;;;0.30;0.30;;;;;;;;;;5041113;28;20040;-88
2022/05/05 04:52:13;;;;;;;1.38;1.02;;;;;;;;;;5041168;28;20047;-88
2022/05/05 04:54:40;;;;;;;2.08;1.20;;;;;;;;;;5040473;28;20041;-87
2022/05/05 04:57:06;;;;;;;0.50;0.45;;;;;;;;;;5021367;28;20045;-87
2022/05/05 04:59:32;;;;;;;1.23;0.60;;;;;;;;;;5040700;28;20110;-87
2022/05/05 05:01:58;;;;;;;0.38;0.38;;;;;;;;;;5040391;28;20032;-88
2022/05/05 05:04:26;;;;;;;1.02;0.90;;;;;;;;;;5040646;28;20068;-88
2022/05/05 05:06:52;;;;;;;0.90;0.90;;;;;;;;;;5057229;28;20075;-88
2022/05/05 05:09:18;;;;;;;0.40;0.40;;;;;;;;;;5057818;28;20049;-88
2022/05/05 05:11:45;;;;;;;0.88;0.88;;;;;;;;;;5041055;28;20044;-88
2022/05/05 05:14:11;;;;;;;0.30;0.30;;;;;;;;;;5040452;28;20109;-88
2022/05/05 05:16:37;;;;;;;0.50;0.50;;;;;;;;;;5040849;28;20067;-88
2022/05/05 05:19:05;;;;;;;0.43;0.43;;;;;;;;;;5040473;28;20032;-89
2022/05/05 05:21:31;;;;;;;0.40;0.40;;;;;;;;;;5024292;28;20495;-87
2022/05/05 05:23:57;;;;;;;0.77;0.77;;;;;;;;;;5040052;28;20051;-87
2022/05/05 05:26:25;;;;;;;0.20;0.20;;;;;;;;;;5023546;28;20041;-86
2022/05/05 05:28:52;;;;;;;0.38;0.38;;;;;;;;;;5040794;28;20496;-87
2022/05/05 05:31:19;;;;;;;0.30;0.30;;;;;;;;;;5040408;28;20090;-88
2022/05/05 05:33:47;;;;;;;0.30;0.30;;;;;;;;;;5040160;28;20040;-89
2022/05/05 05:36:14;;;;;;;0.22;0.22;;;;;;;;;;5040295;28;20115;-89
2022/05/05 05:38:41;;;;;;;0.20;0.20;;;;;;;;;;5056877;28;20119;-87
2022/05/05 05:41:08;;;;;;;0.30;0.30;;;;;;;;;;5040192;28;20082;-88
2022/05/05 05:43:35;;;;;;;0.20;0.20;;;;;;;;;;5040307;28;20489;-87
2022/05/05 05:46:01;;;;;;;0.47;0.47;;;;;;;;;;5040042;28;20485;-88
2022/05/05 05:48:27;;;;;;;0.30;0.30;;;;;;;;;;5039755;28;20047;-86
2022/05/05 05:50:53;;;;;;;0.45;0.45;;;;;;;;;;5040015;28;20040;-87
2022/05/05 05:53:19;;;;;;;0.40;0.40;;;;;;;;;;5039319;28;20501;-87
2022/05/05 05:55:45;;;;;;;0.28;0.28;;;;;;;;;;5039561;28;20051;-88
2022/05/05 05:58:11;;;;;;;0.10;0.10;;;;;;;;;;5039110;28;20502;-88
2022/05/05 06:00:40;;;;;;;0.40;0.40;;;;;;;;;;5039490;28;20392;-87
2022/05/05 06:06:00;;;;;;;0.40;0.40;;;;;;;;;;5017895;28;20052;-88
2022/05/05 06:08:26;;;;;;;5.93;1.65;;;;;;;;;;5039515;28;20104;-88
2022/05/05 06:10:52;;;;;;;0.50;0.50;;;;;;;;;;5039240;28;20064;-87
2022/05/05 06:13:18;;;;;;;1.45;1.20;;;;;;;;;;5022277;28;20074;-86
2022/05/05 06:15:44;;;;;;;0.30;0.30;;;;;;;;;;5033234;28;20033;-88
2022/05/05 06:18:10;;;;;;;0.75;0.52;;;;;;;;;;5036405;28;20134;-88
2022/05/05 06:20:36;;;;;;;4.75;4.35;;;;;;;;;;5038715;28;20040;-88
2022/05/05 06:23:02;;;;;;;1.23;0.95;;;;;;;;;;5039127;28;20040;-85
2022/05/05 06:25:28;;;;;;;0.20;0.20;;;;;;;;;;5038434;28;20037;-88
2022/05/05 06:27:56;;;;;;;0.75;0.50;;;;;;;;;;5039499;28;20139;-88
2022/05/05 06:30:23;;;;;;;0.30;0.30;;;;;;;;;;5039302;28;20048;-88
2022/05/05 06:32:52;;;;;;;1.85;1.33;;;;;;;;;;5038411;28;20044;-86
2022/05/05 06:35:18;;;;;;;0.30;0.30;;;;;;;;;;5052902;28;20040;-87
2022/05/05 06:37:48;;;;;;;0.30;0.30;;;;;;;;;;5036441;28;20086;-88
2022/05/05 06:40:14;;;;;;;1.75;1.17;;;;;;;;;;5039047;28;20036;-86
2022/05/05 06:42:41;;;;;;;4.28;1.83;;;;;;;;;;5038975;28;20052;-88
2022/05/05 06:45:07;;;;;;;0.30;0.30;;;;;;;;;;5055432;28;20045;-87
2022/05/05 06:47:33;;;;;;;0.28;0.28;;;;;;;;;;5038568;28;20036;-87
2022/05/05 06:49:59;;;;;;;0.77;0.63;;;;;;;;;;5038867;28;20405;-88
2022/05/05 06:52:26;;;;;;;0.40;0.40;;;;;;;;;;5038545;28;20048;-88
2022/05/05 06:54:52;;;;;;;0.65;0.60;;;;;;;;;;5038552;28;20493;-89
2022/05/05 06:57:18;;;;;;;0.63;0.57;;;;;;;;;;5038991;28;20044;-88
2022/05/05 06:59:44;;;;;;;0.30;0.30;;;;;;;;;;5031314;28;20045;-87
2022/05/05 07:02:12;;;;;;;0.35;0.35;;;;;;;;;;5036582;28;20110;-84
2022/05/05 07:07:22;;;;;;;2.50;1.23;;;;;;;;;;5050916;28;20056;-86
2022/05/05 07:12:33;;;;;;;0.10;0.10;;;;;;;;;;5053924;28;20041;-88
2022/05/05 07:15:01;;;;;;;0.40;0.40;;;;;;;;;;5058701;28;20119;-87
2022/05/05 07:17:27;;;;;;;0.20;0.20;;;;;;;;;;5042300;28;20067;-87
2022/05/05 07:19:53;;;;;;;0.30;0.30;;;;;;;;;;5026274;28;20563;-88
2022/05/05 07:22:20;;;;;;;0.20;0.20;;;;;;;;;;5041901;28;20043;-86
2022/05/05 07:24:46;;;;;;;0.60;0.60;;;;;;;;;;5058770;28;20425;-87
2022/05/05 07:27:13;;;;;;;0.65;0.65;;;;;;;;;;5041820;28;20036;-86
2022/05/05 07:29:39;;;;;;;1.65;1.15;;;;;;;;;;5041472;28;20036;-86
2022/05/05 07:32:06;;;;;;;0.65;0.65;;;;;;;;;;5041503;28;20036;-87
2022/05/05 07:34:34;;;;;;;0.40;0.40;;;;;;;;;;5043063;28;20082;-87
2022/05/05 07:37:02;;;;;;;0.10;0.10;;;;;;;;;;5042303;28;20535;-87
2022/05/05 07:39:28;;;;;;;0.25;0.25;;;;;;;;;;5043283;28;20036;-89
2022/05/05 07:41:54;;;;;;;16.45;1.20;;;;;;;;;;5041662;28;20032;-87
2022/05/05 07:44:20;;;;;;;0.20;0.20;;;;;;;;;;5042363;28;20408;-88
2022/05/05 07:46:46;;;;;;;0.40;0.40;;;;;;;;;;5041536;28;20044;-87
2022/05/05 07:49:14;;;;;;;1.13;1.08;;;;;;;;;;5042368;28;20489;-86
2022/05/05 07:51:40;;;;;;;0.45;0.43;;;;;;;;;;5043231;28;20037;-92
2022/05/05 07:56:51;;;;;;;0.10;0.10;;;;;;;;;;5064188;28;20063;-91
2022/05/05 07:59:18;;;;;;;13.82;2.53;;;;;;;;;;5045563;28;20028;-88
2022/05/05 08:01:44;;;;;;;0.10;0.10;;;;;;;;;;5059575;28;20044;-89
2022/05/05 08:04:10;;;;;;;0.25;0.25;;;;;;;;;;5043451;28;20048;-89
2022/05/05 08:06:36;;;;;;;0.88;0.75;;;;;;;;;;5043384;28;20063;-86
2022/05/05 08:09:02;;;;;;;7.45;1.10;;;;;;;;;;5045268;28;20040;-88
2022/05/05 08:11:28;;;;;;;0.13;0.13;;;;;;;;;;5044837;28;20047;-90
2022/05/05 08:13:55;;;;;;;0.10;0.10;;;;;;;;;;5045608;28;20127;-90
2022/05/05 08:16:21;;;;;;;0.63;0.57;;;;;;;;;;5045579;28;20064;-90
2022/05/05 08:18:50;;;;;;;0.13;0.13;;;;;;;;;;5061616;28;20033;-91
2022/05/05 08:21:16;;;;;;;0.73;0.68;;;;;;;;;;5046414;28;20029;-91
2022/05/05 08:23:45;;;;;;;0.95;0.82;;;;;;;;;;5044948;28;20051;-92
2022/05/05 08:28:55;;;;;;;1.33;0.80;;;;;;;;;;5053136;28;20464;-90
2022/05/05 08:31:21;;;;;;;1.58;0.68;;;;;;;;;;5045123;28;20076;-90
2022/05/05 08:33:47;;;;;;;0.20;0.20;;;;;;;;;;5060577;28;20053;-91
2022/05/05 08:36:13;;;;;;;0.20;0.20;;;;;;;;;;5045765;28;20041;-93
2022/05/05 08:38:40;;;;;;;0.10;0.10;;;;;;;;;;5047950;28;20098;-91
2022/05/05 08:41:09;;;;;;;0.10;0.10;;;;;;;;;;5042183;28;20040;-85
2022/05/05 08:43:35;;;;;;;2.22;1.17;;;;;;;;;;5041005;28;20497;-85
2022/05/05 08:46:03;;;;;;;0.20;0.20;;;;;;;;;;5037158;28;20083;-83
2022/05/05 08:48:31;;;;;;;0.30;0.30;;;;;;;;;;5039521;28;20044;-83
2022/05/05 08:51:01;;;;;;;0.40;0.30;;;;;;;;;;5038897;28;20038;-85
2022/05/05 08:53:32;;;;;;;0.30;0.30;;;;;;;;;;5038660;28;20505;-86
2022/05/05 08:55:58;;;;;;;0.20;0.20;;;;;;;;;;5039873;28;20033;-90
2022/05/05 08:58:27;;;;;;;3.05;2.85;;;;;;;;;;5051942;28;20111;-88
2022/05/05 09:00:55;;;;;;;0.10;0.10;;;;;;;;;;5042625;28;20040;-89
2022/05/05 09:03:21;;;;;;;0.20;0.20;;;;;;;;;;5041290;28;20041;-88
2022/05/05 09:05:48;;;;;;;0.68;0.63;;;;;;;;;;5043131;28;20409;-89
2022/05/05 09:08:35;;;;;;;0.20;0.20;;;;;;;;;;5059178;28;20048;-87
2022/05/05 09:11:02;;;;;;;0.10;0.10;;;;;;;;;;5031098;28;20134;-88
2022/05/05 09:13:31;;;;;;;0.08;0.08;;;;;;;;;;5022457;28;20041;-90
2022/05/05 09:15:58;;;;;;;0.17;0.17;;;;;;;;;;5022483;28;20033;-89
2022/05/05 09:18:29;;;;;;;0.30;0.28;;;;;;;;;;5023549;28;20045;-89
2022/05/05 09:20:59;;;;;;;0.40;0.40;;;;;;;;;;5041485;28;20047;-92
2022/05/05 09:23:30;;;;;;;4.20;1.88;;;;;;;;;;5024404;28;20057;-89
2022/05/05 09:25:56;;;;;;;1.02;0.77;;;;;;;;;;5024622;28;20051;-89
2022/05/05 09:28:23;;;;;;;0.10;0.10;;;;;;;;;;5024151;28;20555;-89
2022/05/05 09:30:51;;;;;;;0.40;0.30;;;;;;;;;;5023047;28;20047;-88
2022/05/05 09:33:17;;;;;;;0.30;0.30;;;;;;;;;;5021786;28;20131;-87
2022/05/05 09:35:56;;;;;;;2.50;1.58;;;;;;;;;;5032361;28;20036;-84
2022/05/05 09:38:22;;;;;;;0.10;0.10;;;;;;;;;;5044720;28;20044;-90
2022/05/05 09:41:02;;;;;;;0.13;0.13;;;;;;;;;;5027800;28;20401;-92
2022/05/05 09:43:28;;;;;;;0.50;0.30;;;;;;;;;;5024607;28;20560;-89
2022/05/05 09:45:57;;;;;;;1.35;1.05;;;;;;;;;;5024307;28;20041;-89
2022/05/05 09:48:25;;;;;;;2.75;1.23;;;;;;;;;;5029259;28;20074;-90
2022/05/05 09:50:51;;;;;;;0.28;0.28;;;;;;;;;;5045014;28;20131;-90
2022/05/05 09:58:53;;;;;;;0.55;0.52;;;;;;;;;;5042158;28;20041;-86
2022/05/05 10:01:25;;;;;;;0.10;0.10;;;;;;;;;;5022829;28;20040;-87
2022/05/05 10:04:03;;;;;;;0.30;0.30;;;;;;;;;;5039288;28;20055;-84
2022/05/05 10:06:42;;;;;;;0.28;0.28;;;;;;;;;;5043973;28;20076;-83
2022/05/05 10:09:12;;;;;;;1.38;0.55;;;;;;;;;;5039448;28;20071;-83
2022/05/05 10:11:38;;;;;;;0.40;0.40;;;;;;;;;;5053283;28;20072;-86
2022/05/05 10:14:05;;;;;;;0.35;0.20;;;;;;;;;;5051437;28;20033;-85
2022/05/05 10:16:31;;;;;;;0.20;0.20;;;;;;;;;;5030864;28;20037;-84
2022/05/05 10:19:02;;;;;;;1.92;0.95;;;;;;;;;;5035080;28;20094;-86
2022/05/05 10:21:31;;;;;;;1.42;1.05;;;;;;;;;;5049036;28;20067;-84
2022/05/05 10:24:17;;;;;;;0.05;0.05;;;;;;;;;;5039039;28;20584;-86
2022/05/05 10:30:13;;;;;;;5.63;1.38;;;;;;;;;;5073133;28;20185;-87
2022/05/05 10:32:39;;;;;;;0.10;0.10;;;;;;;;;;5039544;28;20066;-87
2022/05/05 10:35:11;;;;;;;0.10;0.10;;;;;;;;;;5039564;28;20032;-87
2022/05/05 10:37:37;;;;;;;0.32;0.30;;;12.50;99.90;;;;;;5039792;28;20032;-87
2022/05/05 10:40:08;;;;;;;0.10;0.10;;;18.50;99.90;;;;;;5039285;28;20063;-84
2022/05/05 10:42:39;;;;;;;0.68;0.63;;;18.50;99.90;;;;;;5030207;28;20028;-85
2022/05/05 10:45:05;;;;;;;0.10;0.10;;;18.70;99.90;;;;;;5036247;28;20105;-86
2022/05/05 10:48:06;;;;;;;10.10;1.30;;;18.90;99.90;;;;;;5034882;28;20047;-84
2022/05/05 10:50:43;;;;;;;1.52;0.75;;;18.70;99.90;;;;;;5022970;28;20040;-85
2022/05/05 10:53:24;;;;;;;0.43;0.43;;;18.60;99.90;;;;;;5039919;28;20033;-85
2022/05/05 10:55:50;;;;;;;0.10;0.10;;;18.80;99.90;;;;;;5052683;28;20484;-86
2022/05/05 10:58:53;;;;;;;0.30;0.30;;;18.90;99.90;;;;;;5039728;28;20123;-84
2022/05/05 11:01:19;;;;;;;4.45;1.52;;;19.10;99.90;;;;;;5036213;28;20036;-84
2022/05/05 11:04:03;;;;;;;0.05;0.05;;;19.20;99.90;;;;;;5039897;28;20036;-85
2022/05/05 11:06:30;;;;;;;0.10;0.10;;;19.30;99.90;;;;;;5039765;28;20040;-85
2022/05/05 11:08:56;;;;;;;12.63;5.78;;;19.30;99.90;;;;;;5040229;28;20048;-85
2022/05/05 11:22:57;;;;;;;3.45;2.03;;;18.60;99.90;;;;;;5051113;28;20041;-83
2022/05/05 11:25:24;;;;;;;0.32;0.32;;;18.60;99.90;;;;;;5056688;28;20040;-84
2022/05/05 11:27:58;;;;;;;3.08;1.55;;;19.10;99.90;;;;;;5039966;28;20041;-84
2022/05/05 11:30:24;;;;;;;1.25;0.65;;;18.60;99.90;;;;;;5040047;28;20068;-83
2022/05/05 11:32:49;;;;;;;3.03;1.92;;;18.80;99.90;;;;;;5056728;28;20056;-82
2022/05/05 11:35:24;;;;;;;3.30;1.85;;;18.90;99.90;;;;;;5039745;28;20505;-84
2022/05/05 11:37:50;;;;;;;1.42;0.95;;;18.80;99.90;;;;;;5028832;28;20042;-83
2022/05/05 11:40:16;;;;;;;2.30;0.93;;;18.60;99.90;;;;;;5040089;28;20040;-84
2022/05/05 11:45:31;;;;;;;3.60;1.48;;;18.50;99.90;;;;;;5050442;28;20509;-86
2022/05/05 11:47:58;;;;;;;2.45;1.67;;;18.90;99.90;;;;;;5039401;28;20043;-85
2022/05/05 11:50:24;;;;;;;0.68;0.43;;;19.10;99.90;;;;;;5040450;28;20032;-84
2022/05/05 11:52:49;;;;;;;1.13;0.73;;;19.20;99.90;;;;;;5039658;28;20043;-82
2022/05/05 11:55:19;;;;;;;3.60;1.58;;;19.20;99.90;;;;;;5039125;28;20438;-83
2022/05/05 11:57:47;;;;;;;7.18;1.45;;;19.10;99.90;;;;;;5022693;28;20064;-84
2022/05/05 12:03:05;;;;;;;3.45;1.73;;;19.20;99.90;;;;;;5072651;28;20129;-84
2022/05/05 12:05:31;;;;;;;0.65;0.50;;;19.20;99.90;;;;;;5039540;28;20120;-85
2022/05/05 12:07:57;;;;;;;6.40;1.67;;;19.30;99.90;;;;;;5040303;28;20516;-86
2022/05/05 12:10:34;;;;;;;2.78;1.45;;;19.60;99.90;;;;;;5039492;28;20033;-85
2022/05/05 12:13:05;;;;;;;1.48;0.82;;;19.40;99.90;;;;;;5039229;28;20059;-86
2022/05/05 12:15:33;;;;;;;0.50;0.40;;;19.50;99.90;;;;;;5055635;28;20044;-86
2022/05/05 12:17:59;;;;;;;1.23;0.75;;;19.40;99.90;;;;;;5039058;28;20043;-85
2022/05/05 12:20:27;;;;;;;1.83;0.85;;;19.60;99.90;;;;;;5038771;28;20044;-85
2022/05/05 12:22:58;;;;;;;7.55;0.75;;;19.70;99.90;;;;;;5023191;28;20470;-86
2022/05/05 12:25:25;;;;;;;1.90;1.20;;;19.70;99.90;;;;;;5022908;28;20074;-86
2022/05/05 12:28:06;;;;;;;30.15;1.75;;;19.90;99.90;;;;;;5055846;28;20040;-85
2022/05/05 12:30:42;;;;;;;1.60;1.02;;;20.10;99.90;;;;;;5039252;28;20080;-84
2022/05/05 12:33:13;;;;;;;15.73;4.30;;;20.10;99.90;;;;;;5021948;28;20044;-84
2022/05/05 12:35:41;;;;;;;1.98;0.98;;;19.40;99.90;;;;;;5034305;28;20028;-86
2022/05/05 12:38:08;;;;;;;0.20;0.20;;;19.80;99.90;;;;;;5034806;28;20038;-86
2022/05/05 12:40:36;;;;;;;3.72;1.42;;;20.00;99.90;;;;;;5038491;28;20127;-86
2022/05/05 12:43:05;;;;;;;0.45;0.45;;;20.10;99.90;;;;;;5039123;28;20036;-85
2022/05/05 12:45:33;;;;;;;0.40;0.40;;;20.20;99.90;;;;;;5054714;28;20041;-84
2022/05/05 12:48:00;;;;;;;2.95;1.50;;;20.40;99.90;;;;;;5038069;28;20448;-86
2022/05/05 12:50:36;;;;;;;1.63;0.93;;;20.40;99.80;;;;;;5038675;28;20405;-84
2022/05/05 13:01:30;;;;;;;1.05;0.75;;;20.40;96.50;;;;;;5054979;28;20049;-83
2022/05/05 13:03:57;;;;;;;5.07;2.45;;;20.90;96.60;;;;;;5054821;28;20457;-86
2022/05/05 13:06:24;;;;;;;1.10;0.65;;;21.00;96.50;;;;;;5036642;28;20089;-84
2022/05/05 13:08:51;;;;;;;1.35;0.38;;;21.30;94.60;;;;;;5036063;28;20044;-85
2022/05/05 13:11:18;;;;;;;0.00;0.00;;;21.50;94.60;;;;;;5037092;28;20071;-83
2022/05/05 13:13:47;;;;;;;0.35;0.20;;;21.80;94.90;;;;;;5037980;28;20047;-84
2022/05/05 13:16:13;;;;;;;0.22;0.22;;;21.40;94.90;;;;;;5036036;28;20449;-86
2022/05/05 13:18:39;;;;;;;0.10;0.10;;;21.20;94.30;;;;;;5037163;28;20040;-86
2022/05/05 13:21:05;;;;;;;0.70;0.60;;;21.40;93.40;;;;;;5037647;28;20124;-84
2022/05/05 13:23:30;;;;;;;7.68;0.70;;;21.40;93.50;;;;;;5037717;28;20040;-84
2022/05/05 13:25:57;;;;;;;0.60;0.60;;;21.40;93.80;;;;;;5054009;28;20044;-84
2022/05/05 13:28:23;;;;;;;1.23;0.73;;;21.40;93.60;;;;;;5037870;28;20089;-84
2022/05/05 13:30:49;;;;;;;0.75;0.68;;;21.30;91.80;;;;;;5037758;28;20123;-86
2022/05/05 13:33:15;;;;;;;0.73;0.50;;;21.50;93.20;;;;;;5038022;28;20051;-87
2022/05/05 13:35:40;;;;;;;1.25;0.93;;;21.80;93.40;;;;;;5037200;28;20170;-84
2022/05/05 13:38:06;;;;;;;1.45;0.80;;;21.90;92.10;;;;;;5022972;28;20493;-85
2022/05/05 13:40:32;;;;;;;0.45;0.30;;;22.10;91.20;;;;;;5028641;28;20037;-85
2022/05/05 13:42:58;;;;;;;1.70;1.00;;;22.10;88.20;;;;;;5053419;28;20032;-86
2022/05/05 13:45:23;;;;;;;1.75;1.00;;;22.10;89.70;;;;;;5037597;28;20048;-86
2022/05/05 13:47:50;;;;;;;0.10;0.10;;;22.30;89.10;;;;;;5054277;28;20404;-83
2022/05/05 13:50:16;;;;;;;1.30;0.40;;;22.00;88.80;;;;;;5037817;28;20074;-86
2022/05/05 13:52:44;;;;;;;0.93;0.50;;;21.50;85.30;;;;;;5034388;28;20102;-84
2022/05/05 13:55:10;;;;;;;1.85;1.25;;;21.10;86.20;;;;;;5037723;28;20032;-85
2022/05/05 13:57:43;;;;;;;0.10;0.10;;;20.90;89.40;;;;;;5037661;28;20103;-85
2022/05/05 14:00:13;;;;;;;0.17;0.17;;;20.70;90.50;;;;;;5021705;28;20481;-87
2022/05/05 14:02:39;;;;;;;0.08;0.08;;;20.50;90.00;;;;;;5037204;28;20044;-86
2022/05/05 14:05:05;;;;;;;6.70;2.83;;;20.60;90.60;;;;;;5037080;28;20528;-85
2022/05/05 14:13:01;;;;;;;0.10;0.10;;;20.30;92.20;;;;;;5053670;28;20048;-85
2022/05/05 14:15:31;;;;;;;2.50;1.15;;;20.80;92.10;;;;;;5053709;28;20041;-86
2022/05/05 14:17:57;;;;;;;0.10;0.10;;;21.30;92.10;;;;;;5037154;28;20216;-85
2022/05/05 14:20:23;;;;;;;6.28;0.82;;;21.40;90.50;;;;;;5053940;28;20037;-85
2022/05/05 14:22:49;;;;;;;0.10;0.10;;;21.30;90.00;;;;;;5040097;28;20046;-85
2022/05/05 14:25:15;;;;;;;2.67;1.00;;;21.40;89.00;;;;;;5024321;28;20559;-83
2022/05/05 14:27:42;;;;;;;1.52;1.05;;;21.10;89.10;;;;;;5040277;28;20040;-86
2022/05/05 14:30:08;;;;;;;0.20;0.10;;;20.80;90.00;;;;;;5040780;28;20119;-86
2022/05/05 14:32:34;;;;;;;2.47;1.40;;;20.40;90.30;;;;;;5041296;28;20401;-86
2022/05/05 14:35:00;;;;;;;0.45;0.40;;;20.30;90.60;;;;;;5057475;28;20041;-86
2022/05/05 14:37:26;;;;;;;0.25;0.20;;;20.20;91.00;;;;;;5040692;28;20033;-86
2022/05/05 14:39:52;;;;;;;0.85;0.40;;;20.10;90.20;;;;;;5025045;28;20037;-86
2022/05/05 14:42:18;;;;;;;0.52;0.52;;;20.00;91.40;;;;;;5041211;28;20029;-86
2022/05/05 14:44:43;;;;;;;0.93;0.40;;;19.90;92.20;;;;;;5024717;28;20075;-84
2022/05/05 14:47:10;;;;;;;0.45;0.35;;;19.80;92.50;;;;;;5041033;28;20474;-85
2022/05/05 14:49:37;;;;;;;0.15;0.15;;;19.70;93.90;;;;;;5041179;28;20036;-86
2022/05/05 14:52:07;;;;;;;0.00;0.00;;;19.60;94.70;;;;;;5041261;28;20060;-83
2022/05/05 14:54:33;;;;;;;0.68;0.50;;;19.50;96.00;;;;;;5029023;28;20052;-84
2022/05/05 14:56:59;;;;;;;0.10;0.10;;;19.50;95.70;;;;;;5039709;28;20040;-84
2022/05/05 14:59:25;;;;;;;0.65;0.40;;;19.40;96.70;;;;;;5040329;28;20036;-84
2022/05/05 15:01:52;;;;;;;0.10;0.10;;;19.40;97.00;;;;;;5056697;28;20050;-85
2022/05/05 15:04:17;;;;;;;0.32;0.25;;;19.30;96.90;;;;;;5040971;28;20036;-85
2022/05/05 15:06:48;;;;;;;0.30;0.25;;;19.10;98.20;;;;;;5033487;28;20120;-86
2022/05/05 15:09:14;;;;;;;0.22;0.22;;;19.10;98.60;;;;;;5038354;28;20041;-86
2022/05/05 15:11:40;;;;;;;0.05;0.05;;;19.10;98.40;;;;;;5040430;28;20405;-86
2022/05/05 15:14:05;;;;;;;0.90;0.63;;;18.70;99.90;;;;;;5040239;28;20032;-85
2022/05/05 15:16:31;;;;;;;0.03;0.03;;;18.50;99.90;;;;;;5029270;28;20028;-86